To NAV CANADA Home Page Login to a new session Search on AWWS site Feedback and Comments Disclaimer Vers la page française équivalente Tips FAQ What's new on the site To the Forecasts and Observations / NOTAM section To "File a Flight Plan" website Publications and other links Update of the User's profile FIC Telephone Numbers My Weather Data Folder Route Weather Data Regional Weather Data Local Weather Data To the Forecasts and Observations / NOTAM section
Request Generated 09/26/2016 at 00:08:57 UTC . Weather information available at that time is displayed.

METAR/TAF

OTTAWA/GATINEAU/QC    

METAR CYND 260000Z 30002KT 15SM FEW240 08/06 A3018 RMK CI1 SLP224=
METAR CYND 252300Z 35003KT 15SM SCT240 10/07 A3017 RMK CI3 SLP222=
METAR CYND 252200Z 32004KT 15SM FEW060 FEW140 BKN240 16/04 A3016 RMK
CF1AC1CI5 CF TR AC TR SLP217=

TAF CYND 251742Z 2518/2601 31012KT P6SM FEW240
BECMG 2521/2523 32005KT
RMK NXT FCST WILL BE ISSUED AT 261245Z=
Your time UTC time
Weather data provided by Environment Canada and NAV CANADA